sensor_id;sensor_type;location;lat;lon;timestamp;temperature;humidity
1592;DHT22;789;51.612;7.510;2023-02-18T00:00:53;12.00;1.00
1592;DHT22;789;51.612;7.510;2023-02-18T00:03:22;12.00;1.00
1592;DHT22;789;51.612;7.510;2023-02-18T00:05:48;12.00;1.00
1592;DHT22;789;51.612;7.510;2023-02-18T00:08:15;12.00;1.00
1592;DHT22;789;51.612;7.510;2023-02-18T00:10:43;12.00;1.00
1592;DHT22;789;51.612;7.510;2023-02-18T00:13:10;12.00;1.00
1592;DHT22;789;51.612;7.510;2023-02-18T00:15:38;12.00;1.00
1592;DHT22;789;51.612;7.510;2023-02-18T00:18:05;11.90;1.00
1592;DHT22;789;51.612;7.510;2023-02-18T00:20:32;11.90;1.00
1592;DHT22;789;51.612;7.510;2023-02-18T00:23:00;11.90;1.00
1592;DHT22;789;51.612;7.510;2023-02-18T00:25:27;12.00;1.00
1592;DHT22;789;51.612;7.510;2023-02-18T00:27:55;12.00;1.00
1592;DHT22;789;51.612;7.510;2023-02-18T00:30:22;12.00;1.00
1592;DHT22;789;51.612;7.510;2023-02-18T00:32:48;12.00;1.00
1592;DHT22;789;51.612;7.510;2023-02-18T00:35:16;11.90;1.00
1592;DHT22;789;51.612;7.510;2023-02-18T00:37:42;11.90;1.00
1592;DHT22;789;51.612;7.510;2023-02-18T00:40:10;11.90;1.00
1592;DHT22;789;51.612;7.510;2023-02-18T00:42:36;11.80;1.00
1592;DHT22;789;51.612;7.510;2023-02-18T00:45:06;11.80;1.00
1592;DHT22;789;51.612;7.510;2023-02-18T00:47:32;11.80;1.00
1592;DHT22;789;51.612;7.510;2023-02-18T00:49:59;11.80;1.00
1592;DHT22;789;51.612;7.510;2023-02-18T00:52:26;11.90;1.00
1592;DHT22;789;51.612;7.510;2023-02-18T00:54:52;11.90;1.00
1592;DHT22;789;51.612;7.510;2023-02-18T00:57:19;11.90;1.00
1592;DHT22;789;51.612;7.510;2023-02-18T00:59:46;11.90;1.00
1592;DHT22;789;51.612;7.510;2023-02-18T01:02:14;11.90;1.00
1592;DHT22;789;51.612;7.510;2023-02-18T01:04:41;12.00;1.00
1592;DHT22;789;51.612;7.510;2023-02-18T01:07:07;12.00;1.00
1592;DHT22;789;51.612;7.510;2023-02-18T01:09:35;12.10;1.00
1592;DHT22;789;51.612;7.510;2023-02-18T01:12:02;12.00;1.00
1592;DHT22;789;51.612;7.510;2023-02-18T01:14:28;12.00;1.00
1592;DHT22;789;51.612;7.510;2023-02-18T01:16:55;12.00;1.00
1592;DHT22;789;51.612;7.510;2023-02-18T01:19:28;12.00;1.00
1592;DHT22;789;51.612;7.510;2023-02-18T01:21:54;12.00;1.00
1592;DHT22;789;51.612;7.510;2023-02-18T01:24:21;12.00;1.00
1592;DHT22;789;51.612;7.510;2023-02-18T01:26:48;12.00;1.00
1592;DHT22;789;51.612;7.510;2023-02-18T01:29:15;11.90;1.00
1592;DHT22;789;51.612;7.510;2023-02-18T01:31:41;11.90;1.00
1592;DHT22;789;51.612;7.510;2023-02-18T01:34:08;11.90;1.00
1592;DHT22;789;51.612;7.510;2023-02-18T01:36:36;11.90;1.00
1592;DHT22;789;51.612;7.510;2023-02-18T01:39:04;12.00;1.00
1592;DHT22;789;51.612;7.510;2023-02-18T01:41:31;11.90;1.00
1592;DHT22;789;51.612;7.510;2023-02-18T01:44:11;11.90;1.00
1592;DHT22;789;51.612;7.510;2023-02-18T01:46:38;12.00;1.00
1592;DHT22;789;51.612;7.510;2023-02-18T01:49:05;11.90;1.00
1592;DHT22;789;51.612;7.510;2023-02-18T01:51:36;11.90;1.00
1592;DHT22;789;51.612;7.510;2023-02-18T01:54:06;11.90;1.00
1592;DHT22;789;51.612;7.510;2023-02-18T01:56:37;11.90;1.00
1592;DHT22;789;51.612;7.510;2023-02-18T01:59:13;11.80;1.00
1592;DHT22;789;51.612;7.510;2023-02-18T02:01:43;11.80;1.00
1592;DHT22;789;51.612;7.510;2023-02-18T02:04:10;11.80;1.00
1592;DHT22;789;51.612;7.510;2023-02-18T02:06:38;11.80;1.00
1592;DHT22;789;51.612;7.510;2023-02-18T02:09:08;11.80;1.00
1592;DHT22;789;51.612;7.510;2023-02-18T02:12:06;11.80;1.00
1592;DHT22;789;51.612;7.510;2023-02-18T02:14:53;11.70;1.00
1592;DHT22;789;51.612;7.510;2023-02-18T02:17:33;11.70;1.00
1592;DHT22;789;51.612;7.510;2023-02-18T02:20:22;11.70;1.00
1592;DHT22;789;51.612;7.510;2023-02-18T02:26:54;11.70;1.00
1592;DHT22;789;51.612;7.510;2023-02-18T02:33:02;11.60;1.00
1592;DHT22;789;51.612;7.510;2023-02-18T02:35:37;11.60;1.00
1592;DHT22;789;51.612;7.510;2023-02-18T02:38:10;11.60;1.00
1592;DHT22;789;51.612;7.510;2023-02-18T02:40:45;11.60;1.00
1592;DHT22;789;51.612;7.510;2023-02-18T02:43:19;11.60;1.00
1592;DHT22;789;51.612;7.510;2023-02-18T02:45:51;11.60;1.00
1592;DHT22;789;51.612;7.510;2023-02-18T02:48:24;11.60;1.00
1592;DHT22;789;51.612;7.510;2023-02-18T02:51:03;11.60;1.00
1592;DHT22;789;51.612;7.510;2023-02-18T02:53:36;11.60;1.00
1592;DHT22;789;51.612;7.510;2023-02-18T02:56:03;11.60;1.00
1592;DHT22;789;51.612;7.510;2023-02-18T02:58:30;11.70;1.00
1592;DHT22;789;51.612;7.510;2023-02-18T03:01:09;11.70;1.00
1592;DHT22;789;51.612;7.510;2023-02-18T03:03:52;11.70;1.00
1592;DHT22;789;51.612;7.510;2023-02-18T03:06:45;11.70;1.00
1592;DHT22;789;51.612;7.510;2023-02-18T03:09:18;11.70;1.00
1592;DHT22;789;51.612;7.510;2023-02-18T03:11:53;11.70;1.00
1592;DHT22;789;51.612;7.510;2023-02-18T03:14:29;11.70;1.00
1592;DHT22;789;51.612;7.510;2023-02-18T03:17:01;11.70;1.00
1592;DHT22;789;51.612;7.510;2023-02-18T03:19:32;11.70;1.00
1592;DHT22;789;51.612;7.510;2023-02-18T03:22:06;11.70;1.00
1592;DHT22;789;51.612;7.510;2023-02-18T03:24:37;11.70;1.00
1592;DHT22;789;51.612;7.510;2023-02-18T03:27:08;11.70;1.00
1592;DHT22;789;51.612;7.510;2023-02-18T03:29:37;11.70;1.00
1592;DHT22;789;51.612;7.510;2023-02-18T03:32:07;11.70;1.00
1592;DHT22;789;51.612;7.510;2023-02-18T03:34:38;11.70;1.00
1592;DHT22;789;51.612;7.510;2023-02-18T03:37:08;11.70;1.00
1592;DHT22;789;51.612;7.510;2023-02-18T03:39:38;11.70;1.00
1592;DHT22;789;51.612;7.510;2023-02-18T03:42:07;11.70;1.00
1592;DHT22;789;51.612;7.510;2023-02-18T03:44:33;11.70;1.00
1592;DHT22;789;51.612;7.510;2023-02-18T03:47:00;11.70;1.00
1592;DHT22;789;51.612;7.510;2023-02-18T03:49:27;11.70;1.00
1592;DHT22;789;51.612;7.510;2023-02-18T03:51:54;11.70;1.00
1592;DHT22;789;51.612;7.510;2023-02-18T03:54:22;11.70;1.00
1592;DHT22;789;51.612;7.510;2023-02-18T03:56:49;11.70;1.00
1592;DHT22;789;51.612;7.510;2023-02-18T03:59:15;11.70;1.00
1592;DHT22;789;51.612;7.510;2023-02-18T04:01:42;11.60;1.00
1592;DHT22;789;51.612;7.510;2023-02-18T04:04:09;11.60;1.00
1592;DHT22;789;51.612;7.510;2023-02-18T04:06:36;11.60;1.00
1592;DHT22;789;51.612;7.510;2023-02-18T04:09:03;11.60;1.00
1592;DHT22;789;51.612;7.510;2023-02-18T04:11:35;11.60;1.00
1592;DHT22;789;51.612;7.510;2023-02-18T04:14:01;11.60;1.00
1592;DHT22;789;51.612;7.510;2023-02-18T04:16:28;11.60;1.00
1592;DHT22;789;51.612;7.510;2023-02-18T04:18:56;11.60;1.00
1592;DHT22;789;51.612;7.510;2023-02-18T04:21:22;11.60;1.00
1592;DHT22;789;51.612;7.510;2023-02-18T04:23:49;11.60;1.00
1592;DHT22;789;51.612;7.510;2023-02-18T04:26:16;11.50;1.00
1592;DHT22;789;51.612;7.510;2023-02-18T04:28:44;11.60;1.00
1592;DHT22;789;51.612;7.510;2023-02-18T04:31:11;11.60;1.00
1592;DHT22;789;51.612;7.510;2023-02-18T04:33:37;11.60;1.00
1592;DHT22;789;51.612;7.510;2023-02-18T04:36:05;11.60;1.00
1592;DHT22;789;51.612;7.510;2023-02-18T04:38:32;11.60;1.00
1592;DHT22;789;51.612;7.510;2023-02-18T04:40:59;11.60;1.00
1592;DHT22;789;51.612;7.510;2023-02-18T04:43:25;11.60;1.00
1592;DHT22;789;51.612;7.510;2023-02-18T04:45:53;11.60;1.00
1592;DHT22;789;51.612;7.510;2023-02-18T04:48:20;11.60;1.00
1592;DHT22;789;51.612;7.510;2023-02-18T04:50:47;11.60;1.00
1592;DHT22;789;51.612;7.510;2023-02-18T04:53:13;11.60;1.00
1592;DHT22;789;51.612;7.510;2023-02-18T04:55:40;11.80;1.00
1592;DHT22;789;51.612;7.510;2023-02-18T04:58:07;11.60;1.00
1592;DHT22;789;51.612;7.510;2023-02-18T05:00:34;11.60;1.00
1592;DHT22;789;51.612;7.510;2023-02-18T05:03:02;11.50;1.00
1592;DHT22;789;51.612;7.510;2023-02-18T05:05:29;11.50;1.00
1592;DHT22;789;51.612;7.510;2023-02-18T05:07:56;11.50;1.00
1592;DHT22;789;51.612;7.510;2023-02-18T05:10:22;11.40;1.00
1592;DHT22;789;51.612;7.510;2023-02-18T05:12:49;11.50;1.00
1592;DHT22;789;51.612;7.510;2023-02-18T05:15:16;11.50;1.00
1592;DHT22;789;51.612;7.510;2023-02-18T05:17:43;11.50;1.00
1592;DHT22;789;51.612;7.510;2023-02-18T05:20:11;11.40;1.00
1592;DHT22;789;51.612;7.510;2023-02-18T05:22:38;11.40;1.00
1592;DHT22;789;51.612;7.510;2023-02-18T05:25:06;11.40;1.00
1592;DHT22;789;51.612;7.510;2023-02-18T05:27:33;11.40;1.00
1592;DHT22;789;51.612;7.510;2023-02-18T05:29:59;11.40;1.00
1592;DHT22;789;51.612;7.510;2023-02-18T05:32:26;11.40;1.00
1592;DHT22;789;51.612;7.510;2023-02-18T05:34:53;11.40;1.00
1592;DHT22;789;51.612;7.510;2023-02-18T05:37:21;11.40;1.00
1592;DHT22;789;51.612;7.510;2023-02-18T05:39:47;11.40;1.00
1592;DHT22;789;51.612;7.510;2023-02-18T05:42:14;11.40;1.00
1592;DHT22;789;51.612;7.510;2023-02-18T05:44:41;11.40;1.00
1592;DHT22;789;51.612;7.510;2023-02-18T05:47:09;11.40;1.00
1592;DHT22;789;51.612;7.510;2023-02-18T05:49:37;11.40;1.00
1592;DHT22;789;51.612;7.510;2023-02-18T05:52:04;11.40;1.00
1592;DHT22;789;51.612;7.510;2023-02-18T05:54:33;11.30;1.00
1592;DHT22;789;51.612;7.510;2023-02-18T05:57:00;11.30;1.00
1592;DHT22;789;51.612;7.510;2023-02-18T05:59:27;11.30;1.00
1592;DHT22;789;51.612;7.510;2023-02-18T06:01:53;11.30;1.00
1592;DHT22;789;51.612;7.510;2023-02-18T06:04:20;11.30;1.00
1592;DHT22;789;51.612;7.510;2023-02-18T06:06:47;11.30;1.00
1592;DHT22;789;51.612;7.510;2023-02-18T06:09:14;11.30;1.00
1592;DHT22;789;51.612;7.510;2023-02-18T06:11:42;11.30;1.00
1592;DHT22;789;51.612;7.510;2023-02-18T06:14:09;11.40;1.00
1592;DHT22;789;51.612;7.510;2023-02-18T06:16:35;11.20;1.00
1592;DHT22;789;51.612;7.510;2023-02-18T06:19:02;11.20;1.00
1592;DHT22;789;51.612;7.510;2023-02-18T06:21:29;11.20;1.00
1592;DHT22;789;51.612;7.510;2023-02-18T06:23:56;11.20;1.00
1592;DHT22;789;51.612;7.510;2023-02-18T06:26:23;11.20;1.00
1592;DHT22;789;51.612;7.510;2023-02-18T06:28:51;11.20;1.00
1592;DHT22;789;51.612;7.510;2023-02-18T06:31:18;11.20;1.00
1592;DHT22;789;51.612;7.510;2023-02-18T06:33:44;11.20;1.00
1592;DHT22;789;51.612;7.510;2023-02-18T06:36:12;11.20;1.00
1592;DHT22;789;51.612;7.510;2023-02-18T06:38:39;11.30;1.00
1592;DHT22;789;51.612;7.510;2023-02-18T06:41:07;11.20;1.00
1592;DHT22;789;51.612;7.510;2023-02-18T06:43:34;11.30;1.00
1592;DHT22;789;51.612;7.510;2023-02-18T06:46:03;11.20;1.00
1592;DHT22;789;51.612;7.510;2023-02-18T06:48:30;11.20;1.00
1592;DHT22;789;51.612;7.510;2023-02-18T06:50:57;11.20;1.00
1592;DHT22;789;51.612;7.510;2023-02-18T06:53:27;11.20;1.00
1592;DHT22;789;51.612;7.510;2023-02-18T06:55:54;11.10;1.00
1592;DHT22;789;51.612;7.510;2023-02-18T06:58:20;11.10;1.00
1592;DHT22;789;51.612;7.510;2023-02-18T07:00:48;11.10;1.00
1592;DHT22;789;51.612;7.510;2023-02-18T07:03:16;11.10;1.00
1592;DHT22;789;51.612;7.510;2023-02-18T07:05:43;11.10;1.00
1592;DHT22;789;51.612;7.510;2023-02-18T07:08:09;11.10;1.00
1592;DHT22;789;51.612;7.510;2023-02-18T07:10:36;11.10;1.00
1592;DHT22;789;51.612;7.510;2023-02-18T07:13:04;11.10;1.00
1592;DHT22;789;51.612;7.510;2023-02-18T07:15:30;11.10;1.00
1592;DHT22;789;51.612;7.510;2023-02-18T07:17:57;11.00;1.00
1592;DHT22;789;51.612;7.510;2023-02-18T07:20:26;11.10;1.00
1592;DHT22;789;51.612;7.510;2023-02-18T07:22:53;11.10;1.00
1592;DHT22;789;51.612;7.510;2023-02-18T07:25:20;11.20;1.00
1592;DHT22;789;51.612;7.510;2023-02-18T07:27:47;11.10;1.00
1592;DHT22;789;51.612;7.510;2023-02-18T07:30:14;11.20;1.00
1592;DHT22;789;51.612;7.510;2023-02-18T07:32:41;11.10;1.00
1592;DHT22;789;51.612;7.510;2023-02-18T07:35:10;11.10;1.00
1592;DHT22;789;51.612;7.510;2023-02-18T07:37:39;11.10;1.00
1592;DHT22;789;51.612;7.510;2023-02-18T07:40:08;11.10;1.00
1592;DHT22;789;51.612;7.510;2023-02-18T07:42:35;11.10;1.00
1592;DHT22;789;51.612;7.510;2023-02-18T07:45:02;11.10;1.00
1592;DHT22;789;51.612;7.510;2023-02-18T07:47:28;11.10;1.00
1592;DHT22;789;51.612;7.510;2023-02-18T07:49:55;11.10;1.00
1592;DHT22;789;51.612;7.510;2023-02-18T07:52:22;11.10;1.00
1592;DHT22;789;51.612;7.510;2023-02-18T07:54:50;11.10;1.00
1592;DHT22;789;51.612;7.510;2023-02-18T07:57:16;11.00;1.00
1592;DHT22;789;51.612;7.510;2023-02-18T07:59:43;11.00;1.00
1592;DHT22;789;51.612;7.510;2023-02-18T08:02:14;11.00;1.00
1592;DHT22;789;51.612;7.510;2023-02-18T08:04:43;11.00;1.00
1592;DHT22;789;51.612;7.510;2023-02-18T08:07:12;11.00;1.00
1592;DHT22;789;51.612;7.510;2023-02-18T08:09:39;11.00;1.00
1592;DHT22;789;51.612;7.510;2023-02-18T08:12:07;11.00;1.00
1592;DHT22;789;51.612;7.510;2023-02-18T08:14:34;11.00;1.00
1592;DHT22;789;51.612;7.510;2023-02-18T08:17:01;11.00;1.00
1592;DHT22;789;51.612;7.510;2023-02-18T08:19:28;11.00;1.00
1592;DHT22;789;51.612;7.510;2023-02-18T08:21:54;11.10;1.00
1592;DHT22;789;51.612;7.510;2023-02-18T08:24:21;11.00;1.00
1592;DHT22;789;51.612;7.510;2023-02-18T08:26:48;11.00;1.00
1592;DHT22;789;51.612;7.510;2023-02-18T08:29:16;11.00;1.00
1592;DHT22;789;51.612;7.510;2023-02-18T08:31:42;11.00;1.00
1592;DHT22;789;51.612;7.510;2023-02-18T08:34:09;11.00;1.00
1592;DHT22;789;51.612;7.510;2023-02-18T08:36:36;11.00;1.00
1592;DHT22;789;51.612;7.510;2023-02-18T08:39:02;11.00;1.00
1592;DHT22;789;51.612;7.510;2023-02-18T08:41:29;11.00;1.00
1592;DHT22;789;51.612;7.510;2023-02-18T08:43:58;11.10;1.00
1592;DHT22;789;51.612;7.510;2023-02-18T08:46:26;11.20;1.00
1592;DHT22;789;51.612;7.510;2023-02-18T08:48:53;11.10;1.00
1592;DHT22;789;51.612;7.510;2023-02-18T08:51:21;11.20;1.00
1592;DHT22;789;51.612;7.510;2023-02-18T08:53:48;11.10;1.00
1592;DHT22;789;51.612;7.510;2023-02-18T08:56:15;11.10;1.00
1592;DHT22;789;51.612;7.510;2023-02-18T08:58:43;11.10;1.00
1592;DHT22;789;51.612;7.510;2023-02-18T09:01:11;11.10;1.00
1592;DHT22;789;51.612;7.510;2023-02-18T09:03:39;11.10;1.00
1592;DHT22;789;51.612;7.510;2023-02-18T09:06:07;11.10;1.00
1592;DHT22;789;51.612;7.510;2023-02-18T09:08:34;11.10;1.00
1592;DHT22;789;51.612;7.510;2023-02-18T09:11:02;11.20;1.00
1592;DHT22;789;51.612;7.510;2023-02-18T09:13:30;11.10;1.00
1592;DHT22;789;51.612;7.510;2023-02-18T09:15:58;11.20;1.00
1592;DHT22;789;51.612;7.510;2023-02-18T09:18:25;11.20;1.00
1592;DHT22;789;51.612;7.510;2023-02-18T09:20:56;11.20;1.00
1592;DHT22;789;51.612;7.510;2023-02-18T09:23:24;11.20;1.00
1592;DHT22;789;51.612;7.510;2023-02-18T09:25:51;11.20;1.00
1592;DHT22;789;51.612;7.510;2023-02-18T09:28:18;11.30;1.00
1592;DHT22;789;51.612;7.510;2023-02-18T09:30:44;11.20;1.00
1592;DHT22;789;51.612;7.510;2023-02-18T09:33:11;11.20;1.00
1592;DHT22;789;51.612;7.510;2023-02-18T09:35:39;11.20;1.00
1592;DHT22;789;51.612;7.510;2023-02-18T09:38:08;11.10;1.00
1592;DHT22;789;51.612;7.510;2023-02-18T09:40:37;11.00;1.00
1592;DHT22;789;51.612;7.510;2023-02-18T09:43:05;11.00;1.00
1592;DHT22;789;51.612;7.510;2023-02-18T09:45:32;11.00;1.00
1592;DHT22;789;51.612;7.510;2023-02-18T09:48:00;11.00;1.00
1592;DHT22;789;51.612;7.510;2023-02-18T09:50:29;11.00;1.00
1592;DHT22;789;51.612;7.510;2023-02-18T09:52:58;11.00;1.00
1592;DHT22;789;51.612;7.510;2023-02-18T09:55:30;11.00;1.00
1592;DHT22;789;51.612;7.510;2023-02-18T09:58:01;11.00;1.00
1592;DHT22;789;51.612;7.510;2023-02-18T10:00:32;11.00;1.00
1592;DHT22;789;51.612;7.510;2023-02-18T10:03:02;11.00;1.00
1592;DHT22;789;51.612;7.510;2023-02-18T10:05:31;11.00;1.00
1592;DHT22;789;51.612;7.510;2023-02-18T10:08:01;11.00;1.00
1592;DHT22;789;51.612;7.510;2023-02-18T10:10:35;11.00;1.00
1592;DHT22;789;51.612;7.510;2023-02-18T10:13:03;11.00;1.00
1592;DHT22;789;51.612;7.510;2023-02-18T10:15:31;11.00;1.00
1592;DHT22;789;51.612;7.510;2023-02-18T10:17:58;10.90;1.00
1592;DHT22;789;51.612;7.510;2023-02-18T10:20:28;10.90;1.00
1592;DHT22;789;51.612;7.510;2023-02-18T10:22:58;10.90;1.00
1592;DHT22;789;51.612;7.510;2023-02-18T10:25:27;10.90;1.00
1592;DHT22;789;51.612;7.510;2023-02-18T10:27:57;10.90;1.00
1592;DHT22;789;51.612;7.510;2023-02-18T10:30:31;11.00;1.00
1592;DHT22;789;51.612;7.510;2023-02-18T10:33:06;11.00;1.00
1592;DHT22;789;51.612;7.510;2023-02-18T10:35:42;11.00;1.00
1592;DHT22;789;51.612;7.510;2023-02-18T10:38:17;11.10;1.00
1592;DHT22;789;51.612;7.510;2023-02-18T10:40:53;11.20;1.00
1592;DHT22;789;51.612;7.510;2023-02-18T10:43:31;11.30;1.00
1592;DHT22;789;51.612;7.510;2023-02-18T10:46:06;11.30;1.00
1592;DHT22;789;51.612;7.510;2023-02-18T10:48:47;11.20;1.00
1592;DHT22;789;51.612;7.510;2023-02-18T10:51:17;11.20;1.00
1592;DHT22;789;51.612;7.510;2023-02-18T10:53:45;11.10;1.00
1592;DHT22;789;51.612;7.510;2023-02-18T10:56:36;11.10;1.00
1592;DHT22;789;51.612;7.510;2023-02-18T10:59:11;11.00;1.00
1592;DHT22;789;51.612;7.510;2023-02-18T11:01:39;11.00;1.00
1592;DHT22;789;51.612;7.510;2023-02-18T11:04:11;11.00;1.00
1592;DHT22;789;51.612;7.510;2023-02-18T11:06:42;11.00;1.00
1592;DHT22;789;51.612;7.510;2023-02-18T11:09:25;11.00;1.00
1592;DHT22;789;51.612;7.510;2023-02-18T11:11:59;11.00;1.00
1592;DHT22;789;51.612;7.510;2023-02-18T11:14:38;10.90;1.00
1592;DHT22;789;51.612;7.510;2023-02-18T11:17:26;10.90;1.00
1592;DHT22;789;51.612;7.510;2023-02-18T11:19:55;10.90;1.00
1592;DHT22;789;51.612;7.510;2023-02-18T11:22:23;10.90;1.00
1592;DHT22;789;51.612;7.510;2023-02-18T11:24:54;10.90;1.00
1592;DHT22;789;51.612;7.510;2023-02-18T11:27:25;10.90;1.00
1592;DHT22;789;51.612;7.510;2023-02-18T11:29:59;10.80;1.00
1592;DHT22;789;51.612;7.510;2023-02-18T11:32:27;10.80;1.00
1592;DHT22;789;51.612;7.510;2023-02-18T11:34:55;10.80;1.00
1592;DHT22;789;51.612;7.510;2023-02-18T11:37:22;10.80;1.00
1592;DHT22;789;51.612;7.510;2023-02-18T11:39:50;10.80;1.00
1592;DHT22;789;51.612;7.510;2023-02-18T11:42:20;10.80;1.00
1592;DHT22;789;51.612;7.510;2023-02-18T11:44:50;10.70;1.00
1592;DHT22;789;51.612;7.510;2023-02-18T11:47:23;10.70;1.00
1592;DHT22;789;51.612;7.510;2023-02-18T11:50:14;10.70;1.00
1592;DHT22;789;51.612;7.510;2023-02-18T11:52:43;10.70;1.00
1592;DHT22;789;51.612;7.510;2023-02-18T11:55:15;10.80;1.00
1592;DHT22;789;51.612;7.510;2023-02-18T11:57:45;10.80;1.00
1592;DHT22;789;51.612;7.510;2023-02-18T12:00:19;10.70;1.00
1592;DHT22;789;51.612;7.510;2023-02-18T12:02:48;10.70;1.00
1592;DHT22;789;51.612;7.510;2023-02-18T12:05:19;10.70;1.00
1592;DHT22;789;51.612;7.510;2023-02-18T12:07:48;10.70;1.00
1592;DHT22;789;51.612;7.510;2023-02-18T12:10:22;10.70;1.00
1592;DHT22;789;51.612;7.510;2023-02-18T12:12:55;10.70;1.00
1592;DHT22;789;51.612;7.510;2023-02-18T12:15:31;10.70;1.00
1592;DHT22;789;51.612;7.510;2023-02-18T12:18:13;10.70;1.00
1592;DHT22;789;51.612;7.510;2023-02-18T12:21:02;10.70;1.00
1592;DHT22;789;51.612;7.510;2023-02-18T12:23:39;10.70;1.00
1592;DHT22;789;51.612;7.510;2023-02-18T12:26:18;10.60;1.00
1592;DHT22;789;51.612;7.510;2023-02-18T12:29:02;10.60;1.00
1592;DHT22;789;51.612;7.510;2023-02-18T12:31:55;10.60;1.00
1592;DHT22;789;51.612;7.510;2023-02-18T12:34:42;10.60;1.00
1592;DHT22;789;51.612;7.510;2023-02-18T12:37:31;10.60;1.00
1592;DHT22;789;51.612;7.510;2023-02-18T12:40:13;10.60;1.00
1592;DHT22;789;51.612;7.510;2023-02-18T12:42:53;10.70;1.00
1592;DHT22;789;51.612;7.510;2023-02-18T12:45:44;10.60;1.00
1592;DHT22;789;51.612;7.510;2023-02-18T12:48:38;10.60;1.00
1592;DHT22;789;51.612;7.510;2023-02-18T12:51:25;10.70;1.00
1592;DHT22;789;51.612;7.510;2023-02-18T12:54:28;10.60;1.00
1592;DHT22;789;51.612;7.510;2023-02-18T12:57:27;10.60;1.00
1592;DHT22;789;51.612;7.510;2023-02-18T13:00:09;10.70;1.00
1592;DHT22;789;51.612;7.510;2023-02-18T13:03:01;10.70;1.00
1592;DHT22;789;51.612;7.510;2023-02-18T13:05:34;10.70;1.00
1592;DHT22;789;51.612;7.510;2023-02-18T13:08:29;10.70;1.00
1592;DHT22;789;51.612;7.510;2023-02-18T13:11:18;10.80;1.00
1592;DHT22;789;51.612;7.510;2023-02-18T13:13:51;10.80;1.00
1592;DHT22;789;51.612;7.510;2023-02-18T13:16:20;10.80;1.00
1592;DHT22;789;51.612;7.510;2023-02-18T13:18:55;10.80;1.00
1592;DHT22;789;51.612;7.510;2023-02-18T13:21:25;10.90;1.00
1592;DHT22;789;51.612;7.510;2023-02-18T13:23:56;10.90;1.00
1592;DHT22;789;51.612;7.510;2023-02-18T13:26:24;11.10;1.00
1592;DHT22;789;51.612;7.510;2023-02-18T13:28:57;10.90;1.00
1592;DHT22;789;51.612;7.510;2023-02-18T13:31:37;11.00;1.00
1592;DHT22;789;51.612;7.510;2023-02-18T13:34:12;11.00;1.00
1592;DHT22;789;51.612;7.510;2023-02-18T13:36:58;11.00;1.00
1592;DHT22;789;51.612;7.510;2023-02-18T13:39:30;11.00;1.00
1592;DHT22;789;51.612;7.510;2023-02-18T13:42:23;11.00;1.00
1592;DHT22;789;51.612;7.510;2023-02-18T13:45:06;10.90;1.00
1592;DHT22;789;51.612;7.510;2023-02-18T13:47:37;11.00;1.00
1592;DHT22;789;51.612;7.510;2023-02-18T13:53:28;11.00;1.00
1592;DHT22;789;51.612;7.510;2023-02-18T13:56:01;10.90;1.00
1592;DHT22;789;51.612;7.510;2023-02-18T13:58:35;10.90;1.00
1592;DHT22;789;51.612;7.510;2023-02-18T14:01:05;10.90;1.00
1592;DHT22;789;51.612;7.510;2023-02-18T14:03:36;10.90;1.00
1592;DHT22;789;51.612;7.510;2023-02-18T14:06:16;10.90;1.00
1592;DHT22;789;51.612;7.510;2023-02-18T14:08:44;10.90;1.00
1592;DHT22;789;51.612;7.510;2023-02-18T14:11:33;10.90;1.00
1592;DHT22;789;51.612;7.510;2023-02-18T14:20:30;10.90;1.00
1592;DHT22;789;51.612;7.510;2023-02-18T14:22:58;11.00;1.00
1592;DHT22;789;51.612;7.510;2023-02-18T14:25:34;10.90;1.00
1592;DHT22;789;51.612;7.510;2023-02-18T14:28:21;10.90;1.00
1592;DHT22;789;51.612;7.510;2023-02-18T14:30:50;11.00;1.00
1592;DHT22;789;51.612;7.510;2023-02-18T14:33:18;11.00;1.00
1592;DHT22;789;51.612;7.510;2023-02-18T14:35:47;11.00;1.00
1592;DHT22;789;51.612;7.510;2023-02-18T14:38:28;11.00;1.00
1592;DHT22;789;51.612;7.510;2023-02-18T14:41:16;11.00;1.00
1592;DHT22;789;51.612;7.510;2023-02-18T14:44:14;11.00;1.00
1592;DHT22;789;51.612;7.510;2023-02-18T14:46:52;11.00;1.00
1592;DHT22;789;51.612;7.510;2023-02-18T14:49:31;11.00;1.00
1592;DHT22;789;51.612;7.510;2023-02-18T14:52:05;11.10;1.00
1592;DHT22;789;51.612;7.510;2023-02-18T14:54:36;11.10;1.00
1592;DHT22;789;51.612;7.510;2023-02-18T14:57:07;11.10;1.00
1592;DHT22;789;51.612;7.510;2023-02-18T14:59:39;11.10;1.00
1592;DHT22;789;51.612;7.510;2023-02-18T15:02:17;11.10;1.00
1592;DHT22;789;51.612;7.510;2023-02-18T15:04:43;11.10;1.00
1592;DHT22;789;51.612;7.510;2023-02-18T15:07:11;11.20;1.00
1592;DHT22;789;51.612;7.510;2023-02-18T15:09:44;11.20;1.00
1592;DHT22;789;51.612;7.510;2023-02-18T15:12:14;11.20;1.00
1592;DHT22;789;51.612;7.510;2023-02-18T15:14:45;11.30;1.00
1592;DHT22;789;51.612;7.510;2023-02-18T15:17:14;11.40;1.00
1592;DHT22;789;51.612;7.510;2023-02-18T15:19:43;11.40;1.00
1592;DHT22;789;51.612;7.510;2023-02-18T15:22:16;11.30;1.00
1592;DHT22;789;51.612;7.510;2023-02-18T15:24:43;11.40;1.00
1592;DHT22;789;51.612;7.510;2023-02-18T15:27:11;11.60;1.00
1592;DHT22;789;51.612;7.510;2023-02-18T15:29:39;11.40;1.00
1592;DHT22;789;51.612;7.510;2023-02-18T15:32:17;11.40;1.00
1592;DHT22;789;51.612;7.510;2023-02-18T15:34:45;11.40;1.00
1592;DHT22;789;51.612;7.510;2023-02-18T15:37:14;11.50;1.00
1592;DHT22;789;51.612;7.510;2023-02-18T15:39:42;11.50;1.00
1592;DHT22;789;51.612;7.510;2023-02-18T15:42:15;11.50;1.00
1592;DHT22;789;51.612;7.510;2023-02-18T15:44:45;11.50;1.00
1592;DHT22;789;51.612;7.510;2023-02-18T15:47:14;11.50;1.00
1592;DHT22;789;51.612;7.510;2023-02-18T15:49:45;11.40;1.00
1592;DHT22;789;51.612;7.510;2023-02-18T15:52:13;11.50;1.00
1592;DHT22;789;51.612;7.510;2023-02-18T15:54:40;11.50;1.00
1592;DHT22;789;51.612;7.510;2023-02-18T15:57:12;11.50;1.00
1592;DHT22;789;51.612;7.510;2023-02-18T15:59:43;11.50;1.00
1592;DHT22;789;51.612;7.510;2023-02-18T16:02:17;11.50;1.00
1592;DHT22;789;51.612;7.510;2023-02-18T16:04:46;11.60;1.00
1592;DHT22;789;51.612;7.510;2023-02-18T16:07:21;11.60;1.00
1592;DHT22;789;51.612;7.510;2023-02-18T16:09:49;11.60;1.00
1592;DHT22;789;51.612;7.510;2023-02-18T16:12:26;11.60;1.00
1592;DHT22;789;51.612;7.510;2023-02-18T16:14:55;11.60;1.00
1592;DHT22;789;51.612;7.510;2023-02-18T16:17:25;11.60;1.00
1592;DHT22;789;51.612;7.510;2023-02-18T16:19:54;11.60;1.00
1592;DHT22;789;51.612;7.510;2023-02-18T16:22:26;11.60;1.00
1592;DHT22;789;51.612;7.510;2023-02-18T16:25:00;11.70;1.00
1592;DHT22;789;51.612;7.510;2023-02-18T16:27:31;11.60;1.00
1592;DHT22;789;51.612;7.510;2023-02-18T16:30:00;11.60;1.00
1592;DHT22;789;51.612;7.510;2023-02-18T16:32:29;11.60;1.00
1592;DHT22;789;51.612;7.510;2023-02-18T16:34:56;11.60;1.00
1592;DHT22;789;51.612;7.510;2023-02-18T16:37:23;11.60;1.00
1592;DHT22;789;51.612;7.510;2023-02-18T16:40:24;11.60;1.00
1592;DHT22;789;51.612;7.510;2023-02-18T16:42:53;11.60;1.00
1592;DHT22;789;51.612;7.510;2023-02-18T16:45:25;11.60;1.00
1592;DHT22;789;51.612;7.510;2023-02-18T16:47:57;11.60;1.00
1592;DHT22;789;51.612;7.510;2023-02-18T16:50:27;11.60;1.00
1592;DHT22;789;51.612;7.510;2023-02-18T16:52:55;11.60;1.00
1592;DHT22;789;51.612;7.510;2023-02-18T16:55:24;11.60;1.00
1592;DHT22;789;51.612;7.510;2023-02-18T16:57:51;11.60;1.00
1592;DHT22;789;51.612;7.510;2023-02-18T17:00:18;11.60;1.00
1592;DHT22;789;51.612;7.510;2023-02-18T17:02:47;11.60;1.00
1592;DHT22;789;51.612;7.510;2023-02-18T17:05:21;11.60;1.00
1592;DHT22;789;51.612;7.510;2023-02-18T17:07:48;11.60;1.00
1592;DHT22;789;51.612;7.510;2023-02-18T17:10:16;11.60;1.00
1592;DHT22;789;51.612;7.510;2023-02-18T17:12:43;11.60;1.00
1592;DHT22;789;51.612;7.510;2023-02-18T17:15:14;11.60;1.00